TimeCST,TemperatureF,Dew PointF,Humidity,Sea Level PressureIn,VisibilityMPH,Wind Direction,Wind SpeedMPH,Gust SpeedMPH,PrecipitationIn,Events,Conditions,WindDirDegrees,DateUTC
12:15 AM,23.0,23.0,100,29.59,10.0,NW,21.9,26.5,N/A,Rain,Freezing Rain,320,2012-11-11 06:15:00
12:35 AM,23.0,23.0,100,29.59,10.0,NW,24.2,29.9,N/A,Rain,Freezing Rain,320,2012-11-11 06:35:00
12:55 AM,23.0,21.2,93,29.60,10.0,NW,21.9,32.2,N/A,Rain,Freezing Rain,310,2012-11-11 06:55:00
1:15 AM,23.0,23.0,100,29.62,3.0,NW,19.6,-,0.02,Snow,Light Snow,310,2012-11-11 07:15:00
1:35 AM,23.0,23.0,100,29.63,4.0,WNW,19.6,23.0,0.06,Snow,Light Snow,300,2012-11-11 07:35:00
1:55 AM,21.2,21.2,100,29.63,8.0,WNW,19.6,25.3,0.07,Snow,Light Snow,290,2012-11-11 07:55:00
2:15 AM,21.2,19.4,93,29.63,10.0,WNW,18.4,26.5,N/A,,Overcast,290,2012-11-11 08:15:00
2:35 AM,19.4,19.4,100,29.62,10.0,WNW,23.0,28.8,N/A,,Overcast,300,2012-11-11 08:35:00
2:55 AM,19.4,19.4,100,29.62,10.0,WNW,21.9,31.1,N/A,Snow,Light Snow,300,2012-11-11 08:55:00
3:15 AM,19.4,19.4,100,29.63,10.0,WNW,23.0,29.9,N/A,Rain,Freezing Rain,290,2012-11-11 09:15:00
3:35 AM,19.4,19.4,100,29.64,5.0,WNW,18.4,28.8,0.01,Snow,Light Snow,290,2012-11-11 09:35:00
3:55 AM,19.4,19.4,100,29.64,1.5,WNW,19.6,27.6,0.31,Snow,Light Snow,300,2012-11-11 09:55:00
4:15 AM,19.4,19.4,100,29.65,1.5,WNW,21.9,27.6,0.19,Snow,Light Snow,290,2012-11-11 10:15:00
4:35 AM,19.4,19.4,100,29.66,4.0,WNW,19.6,27.6,0.21,Snow,Light Snow,290,2012-11-11 10:35:00
4:55 AM,19.4,17.6,93,29.68,7.0,West,23.0,26.5,0.21,,Mostly Cloudy,280,2012-11-11 10:55:00
5:35 AM,17.6,17.6,100,29.68,10.0,WNW,24.2,29.9,N/A,,Mostly Cloudy,290,2012-11-11 11:35:00
5:55 AM,17.6,17.6,100,29.68,10.0,WNW,20.7,29.9,N/A,,Overcast,290,2012-11-11 11:55:00
6:15 AM,17.6,17.6,100,29.69,10.0,WNW,24.2,29.9,N/A,,Overcast,290,2012-11-11 12:15:00
6:35 AM,17.6,17.6,100,29.69,10.0,West,19.6,27.6,N/A,,Overcast,280,2012-11-11 12:35:00
6:55 AM,17.6,15.8,93,29.70,10.0,West,23.0,29.9,N/A,,Overcast,280,2012-11-11 12:55:00
7:35 AM,15.8,15.8,100,29.71,10.0,West,21.9,28.8,N/A,,Overcast,280,2012-11-11 13:35:00
7:55 AM,15.8,15.8,100,29.72,10.0,West,19.6,26.5,N/A,,Overcast,280,2012-11-11 13:55:00
8:15 AM,15.8,15.8,100,29.72,10.0,West,21.9,27.6,N/A,,Overcast,280,2012-11-11 14:15:00
8:35 AM,15.8,14.0,93,29.72,9.0,West,21.9,28.8,N/A,Snow,Light Snow,280,2012-11-11 14:35:00
8:55 AM,15.8,14.0,93,29.73,9.0,West,19.6,27.6,N/A,,Overcast,280,2012-11-11 14:55:00
9:15 AM,15.8,14.0,93,29.72,10.0,West,23.0,27.6,N/A,,Overcast,280,2012-11-11 15:15:00
9:35 AM,15.8,14.0,93,29.73,10.0,West,25.3,28.8,N/A,,Overcast,280,2012-11-11 15:35:00
9:55 AM,15.8,14.0,93,29.72,10.0,West,21.9,29.9,N/A,,Mostly Cloudy,280,2012-11-11 15:55:00
10:15 AM,15.8,14.0,93,29.72,10.0,West,21.9,28.8,N/A,,Mostly Cloudy,280,2012-11-11 16:15:00
10:35 AM,17.6,15.8,93,29.72,8.0,West,24.2,27.6,N/A,Snow,Light Snow,280,2012-11-11 16:35:00
10:55 AM,17.6,15.8,93,29.73,10.0,West,21.9,29.9,N/A,,Overcast,270,2012-11-11 16:55:00
11:35 AM,17.6,15.8,93,29.72,10.0,West,21.9,31.1,N/A,Snow,Light Snow,280,2012-11-11 17:35:00
12:15 PM,17.6,15.8,93,29.72,8.0,West,26.5,32.2,N/A,Snow,Light Snow,280,2012-11-11 18:15:00
12:35 PM,17.6,15.8,93,29.72,9.0,West,24.2,31.1,N/A,Rain,Freezing Rain,270,2012-11-11 18:35:00
12:55 PM,17.6,15.8,93,29.73,7.0,WNW,23.0,-,N/A,Snow,Light Snow,290,2012-11-11 18:55:00
1:15 PM,17.6,15.8,93,29.73,8.0,West,21.9,-,N/A,Snow,Light Snow,280,2012-11-11 19:15:00
1:35 PM,17.6,15.8,93,29.73,9.0,WNW,20.7,28.8,N/A,Snow,Light Snow,290,2012-11-11 19:35:00
1:55 PM,17.6,15.8,93,29.73,10.0,West,20.7,31.1,N/A,,Overcast,280,2012-11-11 19:55:00
2:15 PM,17.6,15.8,93,29.73,10.0,WNW,24.2,27.6,N/A,Snow,Light Snow,290,2012-11-11 20:15:00
2:35 PM,17.6,15.8,93,29.74,10.0,West,23.0,28.8,N/A,,Overcast,280,2012-11-11 20:35:00
2:55 PM,17.6,14.0,86,29.74,10.0,WNW,20.7,26.5,N/A,Snow,Light Snow,290,2012-11-11 20:55:00
3:15 PM,17.6,15.8,93,29.75,7.0,West,18.4,-,N/A,Snow,Light Snow,280,2012-11-11 21:15:00
3:35 PM,17.6,15.8,93,29.75,8.0,West,21.9,27.6,0.01,Snow,Light Snow,280,2012-11-11 21:35:00
3:55 PM,17.6,15.8,93,29.75,10.0,West,18.4,-,0.02,Snow,Light Snow,280,2012-11-11 21:55:00
4:15 PM,17.6,14.0,86,29.75,10.0,West,20.7,26.5,N/A,Snow,Light Snow,280,2012-11-11 22:15:00
4:35 PM,17.6,14.0,86,29.75,10.0,WNW,20.7,28.8,N/A,,Mostly Cloudy,290,2012-11-11 22:35:00
4:55 PM,15.8,14.0,93,29.76,10.0,WNW,21.9,28.8,N/A,Snow,Light Snow,290,2012-11-11 22:55:00
5:15 PM,15.8,14.0,93,29.76,10.0,West,19.6,27.6,N/A,Snow,Light Snow,280,2012-11-11 23:15:00
5:35 PM,15.8,14.0,93,29.76,10.0,West,19.6,26.5,N/A,Rain,Freezing Rain,280,2012-11-11 23:35:00
5:55 PM,15.8,14.0,93,29.77,8.0,West,20.7,28.8,N/A,Snow,Light Snow,280,2012-11-11 23:55:00
6:15 PM,15.8,14.0,93,29.77,10.0,WNW,20.7,33.4,N/A,Rain,Freezing Rain,290,2012-11-12 00:15:00
6:35 PM,15.8,14.0,93,29.77,9.0,West,19.6,25.3,N/A,Snow,Light Snow,280,2012-11-12 00:35:00
6:55 PM,15.8,14.0,93,29.77,10.0,WNW,19.6,27.6,N/A,Rain,Freezing Rain,290,2012-11-12 00:55:00
7:15 PM,15.8,14.0,93,29.77,9.0,West,17.3,24.2,N/A,Rain,Freezing Rain,280,2012-11-12 01:15:00
7:35 PM,15.8,14.0,93,29.78,10.0,WNW,17.3,-,N/A,Snow,Light Snow,290,2012-11-12 01:35:00
7:55 PM,15.8,14.0,93,29.78,10.0,WNW,17.3,21.9,N/A,,Overcast,290,2012-11-12 01:55:00
8:15 PM,15.8,14.0,93,29.78,7.0,WNW,20.7,24.2,N/A,Rain,Freezing Rain,290,2012-11-12 02:15:00
8:35 PM,15.8,14.0,93,29.78,8.0,WNW,18.4,-,N/A,Rain,Freezing Rain,290,2012-11-12 02:35:00
8:55 PM,15.8,14.0,93,29.78,5.0,WNW,16.1,25.3,N/A,Snow,Light Snow,290,2012-11-12 02:55:00
9:15 PM,15.8,14.0,93,29.78,4.0,WNW,18.4,24.2,N/A,Snow,Light Snow,290,2012-11-12 03:15:00
9:35 PM,15.8,14.0,93,29.79,10.0,WNW,17.3,-,0.01,,Overcast,290,2012-11-12 03:35:00
9:55 PM,15.8,14.0,93,29.79,7.0,WNW,17.3,23.0,0.01,Snow,Light Snow,290,2012-11-12 03:55:00
10:15 PM,15.8,14.0,93,29.79,6.0,WNW,19.6,25.3,N/A,Snow,Light Snow,300,2012-11-12 04:15:00
10:35 PM,15.8,15.8,100,29.79,2.5,WNW,16.1,-,0.02,Snow,Light Snow,290,2012-11-12 04:35:00
10:55 PM,15.8,15.8,100,29.79,5.0,WNW,16.1,20.7,0.04,Snow,Light Snow,290,2012-11-12 04:55:00
11:15 PM,15.8,14.0,93,29.79,2.5,WNW,19.6,24.2,0.02,Snow,Light Snow,290,2012-11-12 05:15:00
11:35 PM,15.8,14.0,93,29.80,2.5,WNW,21.9,27.6,0.05,Snow,Light Snow,290,2012-11-12 05:35:00